sensor_id;sensor_type;location;lat;lon;timestamp;pressure;altitude;pressure_sealevel;temperature;humidity
12247;BME280;6186;52.022;4.692;2023-03-18T00:00:40;100831.56;;;13.23;74.43
12247;BME280;6186;52.022;4.692;2023-03-18T00:03:05;100835.16;;;13.21;74.61
12247;BME280;6186;52.022;4.692;2023-03-18T00:05:32;100835.22;;;13.19;74.79
12247;BME280;6186;52.022;4.692;2023-03-18T00:07:59;100838.88;;;13.15;74.68
12247;BME280;6186;52.022;4.692;2023-03-18T00:10:24;100839.88;;;13.13;74.54
12247;BME280;6186;52.022;4.692;2023-03-18T00:12:50;100847.84;;;13.11;74.59
12247;BME280;6186;52.022;4.692;2023-03-18T00:15:18;100844.41;;;13.09;74.79
12247;BME280;6186;52.022;4.692;2023-03-18T00:17:44;100845.44;;;13.05;74.38
12247;BME280;6186;52.022;4.692;2023-03-18T00:20:11;100850.78;;;13.02;74.78
12247;BME280;6186;52.022;4.692;2023-03-18T00:22:39;100845.59;;;12.99;74.63
12247;BME280;6186;52.022;4.692;2023-03-18T00:25:06;100847.44;;;12.97;74.80
12247;BME280;6186;52.022;4.692;2023-03-18T00:27:33;100843.13;;;12.95;74.78
12247;BME280;6186;52.022;4.692;2023-03-18T00:29:59;100838.03;;;12.89;74.74
12247;BME280;6186;52.022;4.692;2023-03-18T00:32:25;100845.81;;;12.93;74.99
12247;BME280;6186;52.022;4.692;2023-03-18T00:34:52;100851.16;;;12.92;74.88
12247;BME280;6186;52.022;4.692;2023-03-18T00:37:17;100839.03;;;12.86;74.88
12247;BME280;6186;52.022;4.692;2023-03-18T00:40:05;100846.91;;;12.88;75.07
12247;BME280;6186;52.022;4.692;2023-03-18T00:42:35;100841.66;;;12.86;75.12
12247;BME280;6186;52.022;4.692;2023-03-18T00:45:05;100846.13;;;12.84;75.12
12247;BME280;6186;52.022;4.692;2023-03-18T00:47:31;100837.28;;;12.85;75.39
12247;BME280;6186;52.022;4.692;2023-03-18T00:49:56;100836.44;;;12.85;75.49
12247;BME280;6186;52.022;4.692;2023-03-18T00:52:21;100836.53;;;12.82;75.49
12247;BME280;6186;52.022;4.692;2023-03-18T00:54:47;100845.31;;;12.82;75.49
12247;BME280;6186;52.022;4.692;2023-03-18T00:57:12;100838.34;;;12.80;75.79
12247;BME280;6186;52.022;4.692;2023-03-18T00:59:38;100840.94;;;12.81;75.66
12247;BME280;6186;52.022;4.692;2023-03-18T01:02:04;100813.47;;;12.62;75.88
12247;BME280;6186;52.022;4.692;2023-03-18T01:04:29;100830.38;;;12.81;75.97
12247;BME280;6186;52.022;4.692;2023-03-18T01:06:55;100831.31;;;12.80;75.99
12247;BME280;6186;52.022;4.692;2023-03-18T01:09:20;100820.03;;;12.75;76.00
12247;BME280;6186;52.022;4.692;2023-03-18T01:11:47;100834.81;;;12.81;76.23
12247;BME280;6186;52.022;4.692;2023-03-18T01:14:12;100832.19;;;12.79;76.24
12247;BME280;6186;52.022;4.692;2023-03-18T01:16:37;100833.19;;;12.77;76.24
12247;BME280;6186;52.022;4.692;2023-03-18T01:19:03;100833.25;;;12.75;76.39
12247;BME280;6186;52.022;4.692;2023-03-18T01:21:28;100823.78;;;12.68;76.26
12247;BME280;6186;52.022;4.692;2023-03-18T01:23:54;100828.97;;;12.71;76.60
12247;BME280;6186;52.022;4.692;2023-03-18T01:26:19;100832.53;;;12.70;76.51
12247;BME280;6186;52.022;4.692;2023-03-18T01:28:45;100831.69;;;12.70;76.75
12247;BME280;6186;52.022;4.692;2023-03-18T01:31:11;100833.47;;;12.69;76.61
12247;BME280;6186;52.022;4.692;2023-03-18T01:33:36;100838.78;;;12.68;76.69
12247;BME280;6186;52.022;4.692;2023-03-18T01:36:03;100837.91;;;12.67;76.86
12247;BME280;6186;52.022;4.692;2023-03-18T01:38:30;100811.31;;;12.47;76.72
12247;BME280;6186;52.022;4.692;2023-03-18T01:40:57;100846.88;;;12.63;76.81
12247;BME280;6186;52.022;4.692;2023-03-18T01:43:26;100851.28;;;12.63;77.08
12247;BME280;6186;52.022;4.692;2023-03-18T01:45:57;100851.44;;;12.58;77.09
12247;BME280;6186;52.022;4.692;2023-03-18T01:48:29;100844.47;;;12.56;77.41
12247;BME280;6186;52.022;4.692;2023-03-18T01:50:59;100847.06;;;12.57;77.47
12247;BME280;6186;52.022;4.692;2023-03-18T01:53:31;100827.94;;;12.51;77.74
12247;BME280;6186;52.022;4.692;2023-03-18T01:56:00;100840.91;;;12.57;77.65
12247;BME280;6186;52.022;4.692;2023-03-18T01:58:31;100848.88;;;12.55;77.67
12247;BME280;6186;52.022;4.692;2023-03-18T02:01:04;100843.59;;;12.55;77.83
12247;BME280;6186;52.022;4.692;2023-03-18T02:03:32;100833.25;;;12.49;78.01
12247;BME280;6186;52.022;4.692;2023-03-18T02:05:58;100846.41;;;12.51;77.98
12247;BME280;6186;52.022;4.692;2023-03-18T02:08:24;100845.53;;;12.50;78.10
12247;BME280;6186;52.022;4.692;2023-03-18T02:10:49;100841.13;;;12.51;78.15
12247;BME280;6186;52.022;4.692;2023-03-18T02:13:16;100826.38;;;12.44;78.32
12247;BME280;6186;52.022;4.692;2023-03-18T02:15:49;100845.53;;;12.50;78.32
12247;BME280;6186;52.022;4.692;2023-03-18T02:18:23;100852.53;;;12.51;78.37
12247;BME280;6186;52.022;4.692;2023-03-18T02:23:34;100852.53;;;12.51;78.61
12247;BME280;6186;52.022;4.692;2023-03-18T02:26:12;100856.09;;;12.50;78.81
12247;BME280;6186;52.022;4.692;2023-03-18T02:28:41;100835.22;;;12.43;78.83
12247;BME280;6186;52.022;4.692;2023-03-18T02:31:10;100844.03;;;12.43;78.96
12247;BME280;6186;52.022;4.692;2023-03-18T02:33:39;100858.88;;;12.46;79.13
12247;BME280;6186;52.022;4.692;2023-03-18T02:36:27;100858.19;;;12.41;79.16
12247;BME280;6186;52.022;4.692;2023-03-18T02:38:55;100860.13;;;12.36;79.29
12247;BME280;6186;52.022;4.692;2023-03-18T02:41:24;100858.47;;;12.32;79.31
12247;BME280;6186;52.022;4.692;2023-03-18T02:43:51;100855.91;;;12.30;79.56
12247;BME280;6186;52.022;4.692;2023-03-18T02:49:02;100853.28;;;12.28;79.49
12247;BME280;6186;52.022;4.692;2023-03-18T02:51:31;100856.78;;;12.29;79.87
12247;BME280;6186;52.022;4.692;2023-03-18T02:54:03;100853.44;;;12.24;79.98
12247;BME280;6186;52.022;4.692;2023-03-18T02:56:29;100857.72;;;12.28;80.02
12247;BME280;6186;52.022;4.692;2023-03-18T02:58:55;100847.41;;;12.20;80.13
12247;BME280;6186;52.022;4.692;2023-03-18T03:01:22;100865.66;;;12.26;80.10
12247;BME280;6186;52.022;4.692;2023-03-18T03:03:47;100856.03;;;12.25;80.29
12247;BME280;6186;52.022;4.692;2023-03-18T03:06:13;100861.31;;;12.25;80.55
12247;BME280;6186;52.022;4.692;2023-03-18T03:08:39;100862.13;;;12.27;80.43
12247;BME280;6186;52.022;4.692;2023-03-18T03:11:05;100863.06;;;12.25;80.57
12247;BME280;6186;52.022;4.692;2023-03-18T03:13:32;100864.72;;;12.29;80.74
12247;BME280;6186;52.022;4.692;2023-03-18T03:15:58;100867.34;;;12.29;80.89
12247;BME280;6186;52.022;4.692;2023-03-18T03:18:24;100866.47;;;12.28;80.93
12247;BME280;6186;52.022;4.692;2023-03-18T03:20:50;100860.34;;;12.28;80.71
12247;BME280;6186;52.022;4.692;2023-03-18T03:23:16;100863.03;;;12.26;81.04
12247;BME280;6186;52.022;4.692;2023-03-18T03:25:43;100863.81;;;12.30;81.21
12247;BME280;6186;52.022;4.692;2023-03-18T03:28:12;100866.44;;;12.30;81.24
12247;BME280;6186;52.022;4.692;2023-03-18T03:30:38;100867.28;;;12.30;81.34
12247;BME280;6186;52.022;4.692;2023-03-18T03:33:05;100870.81;;;12.31;81.39
12247;BME280;6186;52.022;4.692;2023-03-18T03:35:31;100869.16;;;12.27;81.38
12247;BME280;6186;52.022;4.692;2023-03-18T03:37:56;100878.66;;;12.32;81.82
12247;BME280;6186;52.022;4.692;2023-03-18T03:40:22;100881.47;;;12.28;81.79
12247;BME280;6186;52.022;4.692;2023-03-18T03:42:49;100878.66;;;12.32;81.80
12247;BME280;6186;52.022;4.692;2023-03-18T03:45:16;100889.28;;;12.31;81.97
12247;BME280;6186;52.022;4.692;2023-03-18T03:47:43;100890.22;;;12.30;81.98
12247;BME280;6186;52.022;4.692;2023-03-18T03:50:11;100891.09;;;12.29;82.21
12247;BME280;6186;52.022;4.692;2023-03-18T03:52:37;100886.75;;;12.28;82.19
12247;BME280;6186;52.022;4.692;2023-03-18T03:55:08;100888.47;;;12.29;82.68
12247;BME280;6186;52.022;4.692;2023-03-18T03:57:34;100885.94;;;12.24;82.78
12247;BME280;6186;52.022;4.692;2023-03-18T04:00:02;100888.47;;;12.29;82.91
12247;BME280;6186;52.022;4.692;2023-03-18T04:02:27;100887.59;;;12.28;82.87
12247;BME280;6186;52.022;4.692;2023-03-18T04:04:53;100890.34;;;12.25;83.23
12247;BME280;6186;52.022;4.692;2023-03-18T04:07:18;100885.94;;;12.26;83.27
12247;BME280;6186;52.022;4.692;2023-03-18T04:09:44;100881.59;;;12.23;83.43
12247;BME280;6186;52.022;4.692;2023-03-18T04:12:11;100879.03;;;12.22;83.77
12247;BME280;6186;52.022;4.692;2023-03-18T04:14:36;100884.25;;;12.23;83.65
12247;BME280;6186;52.022;4.692;2023-03-18T04:17:02;100891.28;;;12.23;83.97
12247;BME280;6186;52.022;4.692;2023-03-18T04:19:28;100891.28;;;12.23;83.85
12247;BME280;6186;52.022;4.692;2023-03-18T04:21:54;100875.63;;;12.17;83.92
12247;BME280;6186;52.022;4.692;2023-03-18T04:24:21;100887.00;;;12.19;83.99
12247;BME280;6186;52.022;4.692;2023-03-18T04:26:47;100898.38;;;12.22;84.46
12247;BME280;6186;52.022;4.692;2023-03-18T04:29:13;100894.91;;;12.20;84.33
12247;BME280;6186;52.022;4.692;2023-03-18T04:31:38;100891.44;;;12.18;84.29
12247;BME280;6186;52.022;4.692;2023-03-18T04:34:04;100907.22;;;12.20;84.51
12247;BME280;6186;52.022;4.692;2023-03-18T04:36:29;100906.31;;;12.21;84.64
12247;BME280;6186;52.022;4.692;2023-03-18T04:38:54;100905.47;;;12.19;84.78
12247;BME280;6186;52.022;4.692;2023-03-18T04:41:21;100923.88;;;12.22;85.05
12247;BME280;6186;52.022;4.692;2023-03-18T04:43:46;100927.41;;;12.21;84.97
12247;BME280;6186;52.022;4.692;2023-03-18T04:46:13;100937.97;;;12.21;85.13
12247;BME280;6186;52.022;4.692;2023-03-18T04:48:39;100937.97;;;12.21;85.37
12247;BME280;6186;52.022;4.692;2023-03-18T04:51:05;100940.66;;;12.19;85.47
12247;BME280;6186;52.022;4.692;2023-03-18T04:53:33;100931.06;;;12.17;85.51
12247;BME280;6186;52.022;4.692;2023-03-18T04:55:58;100947.63;;;12.22;85.58
12247;BME280;6186;52.022;4.692;2023-03-18T04:58:24;100951.09;;;12.24;85.83
12247;BME280;6186;52.022;4.692;2023-03-18T05:00:50;100949.28;;;12.24;85.89
12247;BME280;6186;52.022;4.692;2023-03-18T05:03:16;100943.19;;;12.24;85.94
12247;BME280;6186;52.022;4.692;2023-03-18T05:05:42;100960.72;;;12.25;85.75
12247;BME280;6186;52.022;4.692;2023-03-18T05:08:08;100951.16;;;12.22;85.94
12247;BME280;6186;52.022;4.692;2023-03-18T05:10:34;100937.38;;;12.11;85.95
12247;BME280;6186;52.022;4.692;2023-03-18T05:13:00;100952.97;;;12.20;86.17
12247;BME280;6186;52.022;4.692;2023-03-18T05:15:26;100950.31;;;12.20;86.08
12247;BME280;6186;52.022;4.692;2023-03-18T05:17:51;100954.69;;;12.21;86.32
12247;BME280;6186;52.022;4.692;2023-03-18T05:20:17;100958.25;;;12.20;86.21
12247;BME280;6186;52.022;4.692;2023-03-18T05:22:42;100948.53;;;12.21;86.39
12247;BME280;6186;52.022;4.692;2023-03-18T05:25:08;100949.44;;;12.20;86.55
12247;BME280;6186;52.022;4.692;2023-03-18T05:27:35;100951.28;;;12.18;86.39
12247;BME280;6186;52.022;4.692;2023-03-18T05:30:01;100941.59;;;12.17;86.55
12247;BME280;6186;52.022;4.692;2023-03-18T05:32:27;100929.63;;;12.07;86.35
12247;BME280;6186;52.022;4.692;2023-03-18T05:34:52;100950.56;;;12.11;86.55
12247;BME280;6186;52.022;4.692;2023-03-18T05:37:17;100915.06;;;11.94;86.55
12247;BME280;6186;52.022;4.692;2023-03-18T05:39:43;100949.75;;;12.09;86.64
12247;BME280;6186;52.022;4.692;2023-03-18T05:42:09;100940.25;;;12.04;86.56
12247;BME280;6186;52.022;4.692;2023-03-18T05:44:35;100957.81;;;12.05;86.72
12247;BME280;6186;52.022;4.692;2023-03-18T05:47:01;100955.25;;;12.03;86.88
12247;BME280;6186;52.022;4.692;2023-03-18T05:49:26;100948.22;;;12.02;87.05
12247;BME280;6186;52.022;4.692;2023-03-18T05:51:52;100958.72;;;12.04;87.40
12247;BME280;6186;52.022;4.692;2023-03-18T05:54:18;100941.13;;;12.04;87.47
12247;BME280;6186;52.022;4.692;2023-03-18T05:56:43;100945.44;;;12.07;87.84
12247;BME280;6186;52.022;4.692;2023-03-18T05:59:10;100946.28;;;12.07;87.67
12247;BME280;6186;52.022;4.692;2023-03-18T06:01:36;100945.41;;;12.08;87.92
12247;BME280;6186;52.022;4.692;2023-03-18T06:04:03;100950.63;;;12.10;87.80
12247;BME280;6186;52.022;4.692;2023-03-18T06:06:30;100956.78;;;12.10;87.99
12247;BME280;6186;52.022;4.692;2023-03-18T06:08:56;100963.91;;;12.07;87.65
12247;BME280;6186;52.022;4.692;2023-03-18T06:11:22;100961.41;;;12.02;87.33
12247;BME280;6186;52.022;4.692;2023-03-18T06:13:48;100961.44;;;12.01;87.79
12247;BME280;6186;52.022;4.692;2023-03-18T06:16:13;100966.84;;;11.98;87.69
12247;BME280;6186;52.022;4.692;2023-03-18T06:18:39;100941.00;;;11.78;87.80
12247;BME280;6186;52.022;4.692;2023-03-18T06:21:07;100975.75;;;11.92;87.86
12247;BME280;6186;52.022;4.692;2023-03-18T06:23:34;100979.31;;;11.91;88.03
12247;BME280;6186;52.022;4.692;2023-03-18T06:26:00;100979.38;;;11.90;87.92
12247;BME280;6186;52.022;4.692;2023-03-18T06:28:25;100985.59;;;11.87;88.23
12247;BME280;6186;52.022;4.692;2023-03-18T06:30:57;100997.06;;;11.86;88.29
12247;BME280;6186;52.022;4.692;2023-03-18T06:33:23;101000.59;;;11.85;88.66
12247;BME280;6186;52.022;4.692;2023-03-18T06:35:50;101002.34;;;11.85;88.79
12247;BME280;6186;52.022;4.692;2023-03-18T06:38:16;101002.28;;;11.88;89.14
12247;BME280;6186;52.022;4.692;2023-03-18T06:40:43;101000.63;;;11.84;89.36
12247;BME280;6186;52.022;4.692;2023-03-18T06:43:09;101006.69;;;11.87;89.53
12247;BME280;6186;52.022;4.692;2023-03-18T06:45:35;101009.31;;;11.87;89.58
12247;BME280;6186;52.022;4.692;2023-03-18T06:48:01;101011.03;;;11.90;89.72
12247;BME280;6186;52.022;4.692;2023-03-18T06:50:27;101023.06;;;11.98;90.44
12247;BME280;6186;52.022;4.692;2023-03-18T06:52:53;101018.56;;;12.02;90.41
12247;BME280;6186;52.022;4.692;2023-03-18T06:55:18;101020.31;;;12.03;90.65
12247;BME280;6186;52.022;4.692;2023-03-18T06:57:44;101021.91;;;12.08;91.20
12247;BME280;6186;52.022;4.692;2023-03-18T07:00:10;101022.69;;;12.12;91.15
12247;BME280;6186;52.022;4.692;2023-03-18T07:02:36;101027.88;;;12.15;91.56
12247;BME280;6186;52.022;4.692;2023-03-18T07:05:01;101027.84;;;12.16;91.75
12247;BME280;6186;52.022;4.692;2023-03-18T07:07:29;101020.88;;;12.14;91.84
12247;BME280;6186;52.022;4.692;2023-03-18T07:09:55;101034.78;;;12.19;91.72
12247;BME280;6186;52.022;4.692;2023-03-18T07:12:20;101033.94;;;12.18;92.23
12247;BME280;6186;52.022;4.692;2023-03-18T07:14:46;101034.78;;;12.19;92.10
12247;BME280;6186;52.022;4.692;2023-03-18T07:17:12;101035.63;;;12.21;92.61
12247;BME280;6186;52.022;4.692;2023-03-18T07:19:38;101042.59;;;12.23;92.97
12247;BME280;6186;52.022;4.692;2023-03-18T07:22:04;101030.34;;;12.21;92.86
12247;BME280;6186;52.022;4.692;2023-03-18T07:24:29;101039.72;;;12.31;93.44
12247;BME280;6186;52.022;4.692;2023-03-18T07:26:54;101037.97;;;12.32;93.59
12247;BME280;6186;52.022;4.692;2023-03-18T07:29:20;101035.28;;;12.33;93.50
12247;BME280;6186;52.022;4.692;2023-03-18T07:31:45;101031.63;;;12.37;93.93
12247;BME280;6186;52.022;4.692;2023-03-18T07:34:12;101030.63;;;12.41;94.07
12247;BME280;6186;52.022;4.692;2023-03-18T07:36:39;101037.56;;;12.45;94.32
12247;BME280;6186;52.022;4.692;2023-03-18T07:39:05;101037.47;;;12.48;94.81
12247;BME280;6186;52.022;4.692;2023-03-18T07:41:31;101044.38;;;12.52;95.06
12247;BME280;6186;52.022;4.692;2023-03-18T07:43:56;101037.19;;;12.57;95.38
12247;BME280;6186;52.022;4.692;2023-03-18T07:46:22;101033.53;;;12.61;95.79
12247;BME280;6186;52.022;4.692;2023-03-18T07:48:48;101032.53;;;12.65;96.11
12247;BME280;6186;52.022;4.692;2023-03-18T07:51:14;101036.72;;;12.72;96.84
12247;BME280;6186;52.022;4.692;2023-03-18T07:53:41;101034.88;;;12.74;96.77
12247;BME280;6186;52.022;4.692;2023-03-18T07:56:07;101041.63;;;12.84;97.47
12247;BME280;6186;52.022;4.692;2023-03-18T07:58:34;101034.41;;;12.89;98.06
12247;BME280;6186;52.022;4.692;2023-03-18T08:01:00;101039.50;;;12.95;98.19
12247;BME280;6186;52.022;4.692;2023-03-18T08:03:26;101048.09;;;13.03;98.83
12247;BME280;6186;52.022;4.692;2023-03-18T08:05:53;101047.91;;;13.09;99.26
12247;BME280;6186;52.022;4.692;2023-03-18T08:08:18;101048.50;;;13.17;99.39
12247;BME280;6186;52.022;4.692;2023-03-18T08:10:44;101037.84;;;13.20;99.61
12247;BME280;6186;52.022;4.692;2023-03-18T08:13:10;101034.06;;;13.28;100.00
12247;BME280;6186;52.022;4.692;2023-03-18T08:15:37;101041.69;;;13.37;100.00
12247;BME280;6186;52.022;4.692;2023-03-18T08:18:02;101024.94;;;13.38;100.00
12247;BME280;6186;52.022;4.692;2023-03-18T08:20:28;101038.44;;;13.55;100.00
12247;BME280;6186;52.022;4.692;2023-03-18T08:22:53;101025.00;;;13.61;100.00
12247;BME280;6186;52.022;4.692;2023-03-18T08:25:20;101023.00;;;13.67;100.00
12247;BME280;6186;52.022;4.692;2023-03-18T08:27:47;101032.31;;;13.79;100.00
12247;BME280;6186;52.022;4.692;2023-03-18T08:30:13;101043.50;;;13.87;100.00
12247;BME280;6186;52.022;4.692;2023-03-18T08:32:39;101029.13;;;13.94;100.00
12247;BME280;6186;52.022;4.692;2023-03-18T08:35:05;101039.22;;;14.07;100.00
12247;BME280;6186;52.022;4.692;2023-03-18T08:37:30;101033.72;;;14.12;100.00
12247;BME280;6186;52.022;4.692;2023-03-18T08:39:56;101044.81;;;14.23;100.00
12247;BME280;6186;52.022;4.692;2023-03-18T08:42:22;101044.66;;;14.28;100.00
12247;BME280;6186;52.022;4.692;2023-03-18T08:44:48;101058.88;;;14.48;100.00
12247;BME280;6186;52.022;4.692;2023-03-18T08:47:15;101062.09;;;14.56;100.00
12247;BME280;6186;52.022;4.692;2023-03-18T08:49:40;101049.38;;;14.66;100.00
12247;BME280;6186;52.022;4.692;2023-03-18T08:52:05;101051.38;;;14.82;100.00
12247;BME280;6186;52.022;4.692;2023-03-18T08:54:31;101067.59;;;14.96;100.00
12247;BME280;6186;52.022;4.692;2023-03-18T08:56:56;101081.22;;;15.09;100.00
12247;BME280;6186;52.022;4.692;2023-03-18T08:59:23;101084.50;;;15.16;100.00
12247;BME280;6186;52.022;4.692;2023-03-18T09:01:49;101069.34;;;15.19;100.00
12247;BME280;6186;52.022;4.692;2023-03-18T09:04:14;101077.47;;;15.36;100.00
12247;BME280;6186;52.022;4.692;2023-03-18T09:06:40;101078.72;;;15.49;100.00
12247;BME280;6186;52.022;4.692;2023-03-18T09:09:06;101078.72;;;15.49;100.00
12247;BME280;6186;52.022;4.692;2023-03-18T09:11:32;101086.97;;;15.63;100.00
12247;BME280;6186;52.022;4.692;2023-03-18T09:13:58;101113.69;;;15.59;100.00
12247;BME280;6186;52.022;4.692;2023-03-18T09:16:23;101115.44;;;15.37;100.00
12247;BME280;6186;52.022;4.692;2023-03-18T09:18:49;101113.97;;;15.08;100.00
12247;BME280;6186;52.022;4.692;2023-03-18T09:21:14;101081.09;;;14.67;100.00
12247;BME280;6186;52.022;4.692;2023-03-18T09:23:39;101106.41;;;14.76;100.00
12247;BME280;6186;52.022;4.692;2023-03-18T09:26:05;101106.13;;;14.83;100.00
12247;BME280;6186;52.022;4.692;2023-03-18T09:28:31;101092.25;;;15.20;100.00
12247;BME280;6186;52.022;4.692;2023-03-18T09:30:56;101090.22;;;15.90;100.00
12247;BME280;6186;52.022;4.692;2023-03-18T09:33:22;101085.41;;;16.77;100.00
12247;BME280;6186;52.022;4.692;2023-03-18T09:35:47;101081.09;;;17.47;100.00
12247;BME280;6186;52.022;4.692;2023-03-18T09:38:15;101080.91;;;18.20;100.00
12247;BME280;6186;52.022;4.692;2023-03-18T09:44:20;101079.06;;;19.17;100.00
12247;BME280;6186;52.022;4.692;2023-03-18T09:46:27;101075.97;;;19.56;100.00
12247;BME280;6186;52.022;4.692;2023-03-18T09:52:16;101079.34;;;20.03;100.00
12247;BME280;6186;52.022;4.692;2023-03-18T09:55:02;101068.47;;;19.92;100.00
12247;BME280;6186;52.022;4.692;2023-03-18T09:57:35;101079.66;;;19.69;100.00
12247;BME280;6186;52.022;4.692;2023-03-18T10:03:05;101087.97;;;18.87;100.00
12247;BME280;6186;52.022;4.692;2023-03-18T10:05:49;101092.31;;;18.39;100.00
12247;BME280;6186;52.022;4.692;2023-03-18T10:11:41;101083.88;;;17.27;100.00
12247;BME280;6186;52.022;4.692;2023-03-18T10:14:16;101105.69;;;16.79;100.00
12247;BME280;6186;52.022;4.692;2023-03-18T10:17:00;101087.22;;;16.38;100.00
12247;BME280;6186;52.022;4.692;2023-03-18T10:19:30;101094.63;;;16.11;100.00
12247;BME280;6186;52.022;4.692;2023-03-18T10:22:20;101099.47;;;16.01;100.00
12247;BME280;6186;52.022;4.692;2023-03-18T10:31:00;101093.94;;;15.86;100.00
12247;BME280;6186;52.022;4.692;2023-03-18T10:38:36;101100.66;;;15.74;100.00
12247;BME280;6186;52.022;4.692;2023-03-18T10:43:52;101112.75;;;15.81;100.00
12247;BME280;6186;52.022;4.692;2023-03-18T10:46:19;101109.53;;;15.73;100.00
12247;BME280;6186;52.022;4.692;2023-03-18T10:49:00;101110.53;;;15.71;100.00
12247;BME280;6186;52.022;4.692;2023-03-18T10:54:14;101116.09;;;15.65;100.00
12247;BME280;6186;52.022;4.692;2023-03-18T10:56:44;101103.56;;;15.68;100.00
12247;BME280;6186;52.022;4.692;2023-03-18T10:59:12;101109.28;;;15.79;100.00
12247;BME280;6186;52.022;4.692;2023-03-18T11:01:41;101104.53;;;15.87;100.00
12247;BME280;6186;52.022;4.692;2023-03-18T11:04:15;101112.34;;;15.90;100.00
12247;BME280;6186;52.022;4.692;2023-03-18T11:06:57;101113.06;;;15.94;100.00
12247;BME280;6186;52.022;4.692;2023-03-18T11:09:32;101114.94;;;15.92;100.00
12247;BME280;6186;52.022;4.692;2023-03-18T11:12:05;101109.88;;;15.86;100.00
12247;BME280;6186;52.022;4.692;2023-03-18T11:14:32;101101.41;;;15.78;100.00
12247;BME280;6186;52.022;4.692;2023-03-18T11:19:39;101109.94;;;15.64;100.00
12247;BME280;6186;52.022;4.692;2023-03-18T11:22:24;101103.16;;;15.57;100.00
12247;BME280;6186;52.022;4.692;2023-03-18T11:25:12;101104.00;;;15.58;100.00
12247;BME280;6186;52.022;4.692;2023-03-18T11:27:40;101103.03;;;15.60;100.00
12247;BME280;6186;52.022;4.692;2023-03-18T11:30:13;101101.31;;;15.59;100.00
12247;BME280;6186;52.022;4.692;2023-03-18T11:32:50;101096.97;;;15.57;100.00
12247;BME280;6186;52.022;4.692;2023-03-18T11:35:22;101104.88;;;15.58;100.00
12247;BME280;6186;52.022;4.692;2023-03-18T11:37:48;101098.97;;;15.52;100.00
12247;BME280;6186;52.022;4.692;2023-03-18T11:42:40;101095.13;;;15.59;100.00
12247;BME280;6186;52.022;4.692;2023-03-18T11:48:27;101098.19;;;15.70;100.00
12247;BME280;6186;52.022;4.692;2023-03-18T11:53:53;101103.63;;;15.67;100.00
12247;BME280;6186;52.022;4.692;2023-03-18T11:56:34;101102.03;;;15.63;100.00
12247;BME280;6186;52.022;4.692;2023-03-18T12:16:43;101091.97;;;16.31;100.00
12247;BME280;6186;52.022;4.692;2023-03-18T12:41:12;101090.28;;;16.67;100.00
12247;BME280;6186;52.022;4.692;2023-03-18T12:43:55;101082.41;;;16.84;100.00
12247;BME280;6186;52.022;4.692;2023-03-18T12:47:08;101086.34;;;16.94;100.00
12247;BME280;6186;52.022;4.692;2023-03-18T12:49:38;101077.81;;;16.88;100.00
12247;BME280;6186;52.022;4.692;2023-03-18T12:52:10;101073.94;;;16.76;100.00
12247;BME280;6186;52.022;4.692;2023-03-18T12:54:40;101084.00;;;16.70;100.00
12247;BME280;6186;52.022;4.692;2023-03-18T12:57:11;101078.81;;;16.67;100.00
12247;BME280;6186;52.022;4.692;2023-03-18T12:59:42;101069.81;;;16.69;100.00
12247;BME280;6186;52.022;4.692;2023-03-18T13:05:31;101076.16;;;16.85;100.00
12247;BME280;6186;52.022;4.692;2023-03-18T13:08:21;101070.25;;;16.98;100.00
12247;BME280;6186;52.022;4.692;2023-03-18T13:10:56;101067.38;;;17.38;100.00
12247;BME280;6186;52.022;4.692;2023-03-18T13:13:24;101071.06;;;18.05;100.00
12247;BME280;6186;52.022;4.692;2023-03-18T13:15:52;101074.75;;;18.52;100.00
12247;BME280;6186;52.022;4.692;2023-03-18T13:18:30;101070.41;;;18.98;100.00
12247;BME280;6186;52.022;4.692;2023-03-18T13:20:58;101074.09;;;19.27;100.00
12247;BME280;6186;52.022;4.692;2023-03-18T13:31:59;101067.13;;;19.09;100.00
12247;BME280;6186;52.022;4.692;2023-03-18T13:42:42;101062.97;;;18.56;100.00
12247;BME280;6186;52.022;4.692;2023-03-18T13:45:29;101052.41;;;18.70;100.00
12247;BME280;6186;52.022;4.692;2023-03-18T13:47:59;101057.22;;;18.79;100.00
12247;BME280;6186;52.022;4.692;2023-03-18T13:50:33;101053.38;;;18.69;100.00
12247;BME280;6186;52.022;4.692;2023-03-18T13:53:02;101050.25;;;18.61;100.00
12247;BME280;6186;52.022;4.692;2023-03-18T14:00:35;101052.47;;;18.36;100.00
12247;BME280;6186;52.022;4.692;2023-03-18T14:05:45;101046.91;;;18.41;100.00
12247;BME280;6186;52.022;4.692;2023-03-18T14:08:33;101034.47;;;18.41;100.00
12247;BME280;6186;52.022;4.692;2023-03-18T14:14:01;101030.63;;;18.47;100.00
12247;BME280;6186;52.022;4.692;2023-03-18T14:19:26;101038.88;;;18.42;99.72
12247;BME280;6186;52.022;4.692;2023-03-18T14:22:11;101032.69;;;18.25;98.11
12247;BME280;6186;52.022;4.692;2023-03-18T14:24:38;101014.63;;;18.14;98.17
12247;BME280;6186;52.022;4.692;2023-03-18T14:32:05;101018.28;;;18.12;97.66
12247;BME280;6186;52.022;4.692;2023-03-18T14:34:34;101012.59;;;18.02;96.61
12247;BME280;6186;52.022;4.692;2023-03-18T14:37:19;101010.41;;;17.93;96.45
12247;BME280;6186;52.022;4.692;2023-03-18T14:39:49;101002.66;;;17.88;96.46
12247;BME280;6186;52.022;4.692;2023-03-18T14:42:33;101013.47;;;17.85;95.94
12247;BME280;6186;52.022;4.692;2023-03-18T14:45:04;101006.28;;;17.88;96.09
12247;BME280;6186;52.022;4.692;2023-03-18T14:53:00;101011.22;;;17.78;95.19
12247;BME280;6186;52.022;4.692;2023-03-18T14:55:30;101019.53;;;17.72;94.94
12247;BME280;6186;52.022;4.692;2023-03-18T14:57:56;101010.13;;;17.65;94.77
12247;BME280;6186;52.022;4.692;2023-03-18T15:00:22;101013.66;;;17.65;94.96
12247;BME280;6186;52.022;4.692;2023-03-18T15:02:59;101016.34;;;17.65;94.96
12247;BME280;6186;52.022;4.692;2023-03-18T15:05:30;101019.38;;;17.58;94.15
12247;BME280;6186;52.022;4.692;2023-03-18T15:07:56;101003.03;;;17.48;94.37
12247;BME280;6186;52.022;4.692;2023-03-18T15:10:26;101003.72;;;17.52;94.47
12247;BME280;6186;52.022;4.692;2023-03-18T15:15:28;100994.88;;;17.51;93.86